createdAt,value
2022-11-10T06:01:08.749Z,95.50
2022-11-10T06:06:30.712Z,95.50
2022-11-10T06:11:52.770Z,95.50
2022-11-10T06:17:16.050Z,95.50
2022-11-10T06:22:37.772Z,95.40
2022-11-10T06:28:00.011Z,95.80
2022-11-10T06:33:23.453Z,95.90
2022-11-10T06:38:45.740Z,95.60
2022-11-10T06:44:07.714Z,95.70
2022-11-10T06:49:30.787Z,96.00
2022-11-10T06:54:52.529Z,96.20
2022-11-10T07:00:16.825Z,96.20
2022-11-10T07:05:40.339Z,95.80
2022-11-10T07:11:02.298Z,95.90
2022-11-10T07:16:24.781Z,96.00
2022-11-10T07:21:48.198Z,96.10
2022-11-10T07:27:10.246Z,96.30
2022-11-10T07:32:31.895Z,96.40
2022-11-10T07:37:55.218Z,96.40
2022-11-10T07:43:16.935Z,96.40
2022-11-10T07:48:38.762Z,96.50
2022-11-10T07:54:02.014Z,96.40
2022-11-10T07:59:23.913Z,96.50
2022-11-10T08:04:45.591Z,96.30
2022-11-10T08:10:09.686Z,96.30
2022-11-10T08:15:32.628Z,96.30
2022-11-10T08:20:54.262Z,96.30
2022-11-10T08:26:17.887Z,96.30
2022-11-10T08:31:39.794Z,96.20
2022-11-10T08:37:01.494Z,96.20
2022-11-10T08:42:24.688Z,96.20
2022-11-10T08:47:46.639Z,96.00
2022-11-10T08:53:10.701Z,95.90
2022-11-10T08:58:33.918Z,95.80
2022-11-10T09:03:55.850Z,95.70
2022-11-10T09:09:17.604Z,95.30
2022-11-10T09:14:41.106Z,94.70
2022-11-10T09:20:02.870Z,94.80
2022-11-10T09:25:25.134Z,94.60
2022-11-10T09:30:51.017Z,94.60
2022-11-10T09:36:12.636Z,94.50
2022-11-10T09:41:34.603Z,94.60
2022-11-10T09:47:02.295Z,94.60
2022-11-10T09:52:25.849Z,94.30
2022-11-10T09:57:49.224Z,93.50
2022-11-10T10:03:18.329Z,93.10
2022-11-10T10:08:50.598Z,92.40
2022-11-10T10:14:45.092Z,91.70
2022-11-10T10:20:18.735Z,91.40
2022-11-10T10:25:42.745Z,90.90
2022-11-10T10:31:18.229Z,90.20
2022-11-10T10:36:41.485Z,88.90
2022-11-10T10:42:03.438Z,88.00
2022-11-10T10:47:38.066Z,87.40
2022-11-10T10:53:15.565Z,86.70
2022-11-10T10:58:50.754Z,85.40
2022-11-10T11:04:27.359Z,84.30
2022-11-10T11:09:50.471Z,84.20
2022-11-10T11:15:20.140Z,83.20
2022-11-10T11:20:49.690Z,82.40
2022-11-10T11:26:19.230Z,81.70
2022-11-10T11:31:51.073Z,80.70
2022-11-10T11:37:20.418Z,80.40
2022-11-10T11:42:57.598Z,79.80
2022-11-10T11:48:36.462Z,79.60
2022-11-10T11:54:20.522Z,77.80
2022-11-10T12:00:05.067Z,78.10
2022-11-10T12:05:44.621Z,77.50
2022-11-10T12:11:16.158Z,76.30
2022-11-10T12:16:44.532Z,75.70
2022-11-10T12:22:14.611Z,76.00
2022-11-10T12:27:40.114Z,76.60
2022-11-10T12:33:08.193Z,75.60
2022-11-10T12:38:43.734Z,75.10
2022-11-10T12:44:14.653Z,76.40
2022-11-10T12:49:40.381Z,74.50
2022-11-10T12:55:02.354Z,73.50
2022-11-10T13:00:28.774Z,73.40
2022-11-10T13:05:59.410Z,73.00
2022-11-10T13:11:28.108Z,73.30
2022-11-10T13:16:54.281Z,73.40
2022-11-10T13:22:37.059Z,74.00
2022-11-10T13:27:59.244Z,73.70
2022-11-10T13:33:34.373Z,73.10
2022-11-10T13:38:57.620Z,72.30
2022-11-10T13:44:25.752Z,71.80
2022-11-10T13:49:58.013Z,71.00
2022-11-10T13:55:32.752Z,71.50
2022-11-10T14:01:30.516Z,71.20
2022-11-10T14:06:55.371Z,70.70
2022-11-10T14:12:25.714Z,69.90
2022-11-10T14:17:51.510Z,69.80
2022-11-10T14:23:20.999Z,69.90
2022-11-10T14:28:44.159Z,70.40
2022-11-10T14:34:06.180Z,71.00
2022-11-10T14:39:32.860Z,70.10
2022-11-10T14:45:10.041Z,69.40
2022-11-10T14:50:33.888Z,69.50
2022-11-10T14:55:56.332Z,68.80
2022-11-10T15:01:27.519Z,69.60
2022-11-10T15:06:52.050Z,69.90
2022-11-10T15:12:27.157Z,70.50
2022-11-10T15:17:51.447Z,71.40
2022-11-10T15:23:23.593Z,72.10
2022-11-10T15:28:47.521Z,72.60
2022-11-10T15:34:33.266Z,72.90
2022-11-10T15:40:16.316Z,73.10
2022-11-10T15:45:38.925Z,73.50
2022-11-10T15:51:02.316Z,73.90
2022-11-10T15:56:25.671Z,73.90
2022-11-10T16:01:47.746Z,74.20
2022-11-10T16:07:11.167Z,74.40
2022-11-10T16:12:33.513Z,74.40
2022-11-10T16:17:55.162Z,74.70
2022-11-10T16:23:18.845Z,75.00
2022-11-10T16:28:44.034Z,75.30
2022-11-10T16:34:06.039Z,75.60
2022-11-10T16:39:29.873Z,75.60
2022-11-10T16:44:52.420Z,75.70
2022-11-10T16:50:31.789Z,76.20
2022-11-10T16:55:55.055Z,76.20
2022-11-10T17:01:20.837Z,76.30
2022-11-10T17:06:43.424Z,76.30
2022-11-10T17:12:06.838Z,76.50
2022-11-10T17:17:28.882Z,76.40
2022-11-10T17:22:50.876Z,76.80
2022-11-10T17:28:16.327Z,76.90
2022-11-10T17:33:38.270Z,77.30
2022-11-10T17:38:59.951Z,77.20
2022-11-10T17:44:23.331Z,77.50
2022-11-10T17:49:45.001Z,77.80
2022-11-10T17:55:06.928Z,77.90
2022-11-10T18:00:30.392Z,78.30
2022-11-10T18:05:52.120Z,78.70
2022-11-10T18:11:16.772Z,79.20
2022-11-10T18:16:39.709Z,79.40
2022-11-10T18:22:01.470Z,79.60
2022-11-10T18:27:23.123Z,79.30
2022-11-10T18:32:46.474Z,79.60
2022-11-10T18:38:09.998Z,79.90
2022-11-10T18:43:31.584Z,80.20
2022-11-10T18:48:54.675Z,80.60
2022-11-10T18:54:16.765Z,81.00
2022-11-10T18:59:38.362Z,81.60
2022-11-10T19:05:02.627Z,81.90
2022-11-10T19:10:24.507Z,82.30
2022-11-10T19:15:46.552Z,82.60
2022-11-10T19:21:10.970Z,82.90
2022-11-10T19:26:33.060Z,83.40
2022-11-10T19:31:55.128Z,83.80
2022-11-10T19:37:18.336Z,84.30
2022-11-10T19:42:40.223Z,84.70
2022-11-10T19:48:02.149Z,84.90
2022-11-10T19:53:25.733Z,85.20
2022-11-10T19:58:49.198Z,85.40
2022-11-10T20:04:12.484Z,85.40
2022-11-10T20:09:35.891Z,85.60
2022-11-10T20:14:57.832Z,86.00
2022-11-10T20:20:19.635Z,86.40
2022-11-10T20:25:43.194Z,86.60
2022-11-10T20:31:07.965Z,87.00
2022-11-10T20:36:32.290Z,87.40
2022-11-10T20:41:55.852Z,87.80
2022-11-10T20:47:17.458Z,88.00
2022-11-10T20:52:38.958Z,88.20
2022-11-10T20:58:02.403Z,88.60
2022-11-10T21:03:24.523Z,89.00
2022-11-10T21:08:46.671Z,89.60
2022-11-10T21:14:09.945Z,90.00
2022-11-10T21:19:34.483Z,90.40
2022-11-10T21:24:56.258Z,90.60
2022-11-10T21:30:23.908Z,90.80
2022-11-10T21:35:46.088Z,91.10
2022-11-10T21:41:07.780Z,91.20
2022-11-10T21:46:30.834Z,91.40
2022-11-10T21:51:54.005Z,91.90
2022-11-10T21:57:15.773Z,92.00
2022-11-10T22:02:38.914Z,92.00
2022-11-10T22:08:00.668Z,92.40
2022-11-10T22:13:40.127Z,92.70
2022-11-10T22:19:04.421Z,93.00
2022-11-10T22:24:27.683Z,93.30
2022-11-10T22:29:49.374Z,93.70
2022-11-10T22:35:34.103Z,93.90
2022-11-10T22:41:16.587Z,94.10
2022-11-10T22:46:39.836Z,94.30
2022-11-10T22:52:03.223Z,94.30
2022-11-10T22:57:26.136Z,94.20
2022-11-10T23:02:47.934Z,94.20
2022-11-10T23:08:10.924Z,94.20
2022-11-10T23:13:34.735Z,94.20
2022-11-10T23:18:58.133Z,94.30
2022-11-10T23:24:24.547Z,94.20
2022-11-10T23:29:46.410Z,94.30
